createdAt,value
2023-01-17T00:01:48.637Z,89.09
2023-01-17T00:04:33.877Z,88.86
2023-01-17T00:07:18.895Z,88.26
2023-01-17T00:09:54.736Z,88.16
2023-01-17T00:12:21.729Z,88.37
2023-01-17T00:14:48.802Z,88.35
2023-01-17T00:17:15.501Z,88.10
2023-01-17T00:20:00.618Z,88.87
2023-01-17T00:22:48.522Z,88.79
2023-01-17T00:25:38.972Z,89.02
2023-01-17T00:28:05.972Z,88.53
2023-01-17T00:30:33.501Z,88.75
2023-01-17T00:33:00.222Z,88.25
2023-01-17T00:35:29.002Z,88.82
2023-01-17T00:38:12.675Z,88.99
2023-01-17T00:40:41.336Z,89.02
2023-01-17T00:43:27.913Z,89.46
2023-01-17T00:46:13.472Z,89.78
2023-01-17T00:48:59.179Z,90.26
2023-01-17T00:51:45.184Z,89.95
2023-01-17T00:54:30.789Z,90.23
2023-01-17T00:57:16.170Z,90.10
2023-01-17T01:00:01.351Z,90.26
2023-01-17T01:02:46.653Z,90.30
2023-01-17T01:05:32.860Z,90.41
2023-01-17T01:08:18.327Z,90.52
2023-01-17T01:11:05.283Z,90.59
2023-01-17T01:13:51.310Z,90.37
2023-01-17T01:16:38.173Z,90.73
2023-01-17T01:19:24.305Z,90.70
2023-01-17T01:22:09.420Z,90.84
2023-01-17T01:24:54.305Z,90.95
2023-01-17T01:27:39.235Z,91.07
2023-01-17T01:30:25.161Z,91.20
2023-01-17T01:33:10.034Z,90.97
2023-01-17T01:35:37.358Z,91.34
2023-01-17T01:38:04.187Z,91.05
2023-01-17T01:40:30.804Z,90.88
2023-01-17T01:43:00.001Z,90.78
2023-01-17T01:45:32.351Z,90.26
2023-01-17T01:48:01.895Z,90.39
2023-01-17T01:50:30.754Z,90.35
2023-01-17T01:53:01.064Z,90.19
2023-01-17T01:55:33.182Z,90.02
2023-01-17T01:58:05.376Z,89.79
2023-01-17T02:00:38.233Z,89.87
2023-01-17T02:03:13.873Z,89.69
2023-01-17T02:05:43.687Z,89.59
2023-01-17T02:08:15.668Z,89.24
2023-01-17T02:10:44.112Z,89.24
2023-01-17T02:13:12.185Z,89.49
2023-01-17T02:15:50.937Z,89.38
2023-01-17T02:18:20.520Z,89.73
2023-01-17T02:20:53.021Z,89.59
2023-01-17T02:23:52.597Z,89.69
2023-01-17T02:26:47.772Z,89.46
2023-01-17T02:29:19.944Z,89.48
2023-01-17T02:31:54.926Z,89.51
2023-01-17T02:34:45.892Z,89.15
2023-01-17T02:37:44.585Z,89.63
2023-01-17T02:40:19.944Z,88.88
2023-01-17T02:42:53.471Z,88.75
2023-01-17T02:45:21.094Z,88.88
2023-01-17T02:47:47.828Z,88.80
2023-01-17T02:50:19.775Z,89.06
2023-01-17T02:53:11.095Z,89.28
2023-01-17T02:56:05.412Z,89.14
2023-01-17T02:59:12.126Z,89.03
2023-01-17T03:01:57.065Z,89.23
2023-01-17T03:04:32.642Z,89.44
2023-01-17T03:07:05.756Z,89.41
2023-01-17T03:09:33.348Z,89.10
2023-01-17T03:12:04.194Z,89.08
2023-01-17T03:14:31.573Z,89.25
2023-01-17T03:16:58.275Z,89.05
2023-01-17T03:19:24.795Z,89.22
2023-01-17T03:21:51.303Z,88.69
2023-01-17T03:24:17.857Z,88.95
2023-01-17T03:26:45.100Z,88.71
2023-01-17T03:29:11.880Z,88.69
2023-01-17T03:31:38.548Z,88.46
2023-01-17T03:34:05.094Z,88.66
2023-01-17T03:36:31.620Z,88.83
2023-01-17T03:38:58.201Z,88.24
2023-01-17T03:41:25.098Z,88.13
2023-01-17T03:43:51.757Z,87.83
2023-01-17T03:46:21.885Z,88.33
2023-01-17T03:48:48.652Z,88.00
2023-01-17T03:51:15.589Z,88.05
2023-01-17T03:53:42.923Z,88.23
2023-01-17T03:56:09.574Z,88.21
2023-01-17T03:58:36.050Z,88.23
2023-01-17T04:01:02.657Z,87.86
2023-01-17T04:03:30.232Z,87.57
2023-01-17T04:05:56.810Z,88.13
2023-01-17T04:08:23.383Z,88.01
2023-01-17T04:10:50.118Z,87.99
2023-01-17T04:13:19.209Z,87.58
2023-01-17T04:15:48.597Z,87.45
2023-01-17T04:18:17.405Z,87.58
2023-01-17T04:20:44.316Z,86.79
2023-01-17T04:23:11.310Z,87.19
2023-01-17T04:25:38.118Z,86.92
2023-01-17T04:28:05.183Z,87.20
2023-01-17T04:30:32.676Z,86.61
2023-01-17T04:32:59.320Z,86.47
2023-01-17T04:35:25.873Z,86.13
2023-01-17T04:37:52.888Z,85.66
2023-01-17T04:40:19.579Z,85.79
2023-01-17T04:42:46.199Z,85.83
2023-01-17T04:45:14.402Z,85.60
2023-01-17T04:47:41.229Z,85.37
2023-01-17T04:50:08.630Z,85.49
2023-01-17T04:52:35.319Z,85.62
2023-01-17T04:55:01.939Z,85.96
2023-01-17T04:57:28.919Z,85.62
2023-01-17T04:59:55.418Z,84.81
2023-01-17T05:02:22.254Z,85.10
2023-01-17T05:04:48.893Z,85.19
2023-01-17T05:07:15.478Z,85.07
2023-01-17T05:09:43.720Z,84.88
2023-01-17T05:12:10.532Z,85.21
2023-01-17T05:14:37.120Z,84.28
2023-01-17T05:17:03.652Z,84.44
2023-01-17T05:19:30.281Z,84.67
2023-01-17T05:22:03.806Z,84.74
2023-01-17T05:24:31.313Z,84.82
2023-01-17T05:27:03.172Z,84.97
2023-01-17T05:29:30.871Z,85.02
2023-01-17T05:31:57.958Z,84.29
2023-01-17T05:34:24.775Z,84.64
2023-01-17T05:36:51.467Z,84.96
2023-01-17T05:39:18.076Z,85.01
2023-01-17T05:41:44.814Z,85.09
2023-01-17T05:44:11.638Z,84.90
2023-01-17T05:46:38.340Z,84.58
2023-01-17T05:49:05.020Z,84.70
2023-01-17T05:51:31.524Z,84.90
2023-01-17T05:53:58.067Z,85.17
2023-01-17T05:56:24.549Z,85.21
2023-01-17T05:58:51.077Z,85.20
2023-01-17T06:01:17.938Z,85.39
2023-01-17T06:03:44.457Z,84.67
2023-01-17T06:06:10.958Z,84.34
2023-01-17T06:08:37.497Z,84.73
2023-01-17T06:11:04.053Z,85.34
2023-01-17T06:13:30.548Z,85.28
2023-01-17T06:16:02.845Z,85.08
2023-01-17T06:18:30.729Z,84.78
2023-01-17T06:20:59.998Z,85.11
2023-01-17T06:23:26.632Z,85.29
2023-01-17T06:25:53.303Z,85.52
2023-01-17T06:28:22.804Z,85.49
2023-01-17T06:30:49.617Z,85.64
2023-01-17T06:33:16.383Z,85.78
2023-01-17T06:35:50.369Z,86.11
2023-01-17T06:38:17.114Z,86.26
2023-01-17T06:40:43.617Z,86.40
2023-01-17T06:43:10.466Z,86.46
2023-01-17T06:45:37.100Z,86.27
2023-01-17T06:48:05.247Z,85.75
2023-01-17T06:50:33.242Z,86.00
2023-01-17T06:53:02.275Z,85.86
2023-01-17T06:55:30.581Z,85.77
2023-01-17T06:57:59.673Z,85.60
2023-01-17T07:00:31.148Z,85.86
2023-01-17T07:02:57.999Z,85.64
2023-01-17T07:05:25.262Z,85.18
2023-01-17T07:07:51.915Z,84.70
2023-01-17T07:10:18.563Z,84.37
2023-01-17T07:12:45.584Z,84.25
2023-01-17T07:15:12.597Z,84.42
2023-01-17T07:17:39.526Z,84.24
2023-01-17T07:20:06.878Z,83.67
2023-01-17T07:22:33.426Z,82.68
2023-01-17T07:25:00.432Z,82.53
2023-01-17T07:27:30.459Z,82.22
2023-01-17T07:29:57.941Z,82.03
2023-01-17T07:32:26.781Z,81.46
2023-01-17T07:34:54.253Z,81.41
2023-01-17T07:37:20.852Z,80.88
2023-01-17T07:39:47.459Z,80.07
2023-01-17T07:42:14.218Z,79.37
2023-01-17T07:44:44.051Z,78.73
2023-01-17T07:47:11.739Z,78.54
2023-01-17T07:49:38.560Z,78.41
2023-01-17T07:52:08.972Z,77.79
2023-01-17T07:54:35.679Z,77.35
2023-01-17T07:57:02.343Z,77.23
2023-01-17T07:59:28.962Z,77.11
2023-01-17T08:01:55.808Z,76.74
2023-01-17T08:04:25.908Z,75.49
2023-01-17T08:06:54.475Z,75.52
2023-01-17T08:09:21.085Z,75.38
2023-01-17T08:11:47.581Z,75.70
2023-01-17T08:14:14.068Z,74.73
2023-01-17T08:16:40.656Z,75.89
2023-01-17T08:19:07.155Z,75.25
2023-01-17T08:21:33.674Z,75.21
2023-01-17T08:24:00.269Z,75.36
2023-01-17T08:26:27.403Z,74.99
2023-01-17T08:29:02.397Z,75.33
2023-01-17T08:31:32.141Z,75.34
2023-01-17T08:33:58.869Z,75.53
2023-01-17T08:36:25.956Z,75.56
2023-01-17T08:38:52.948Z,75.98
2023-01-17T08:41:21.019Z,74.80
2023-01-17T08:43:48.647Z,74.89
2023-01-17T08:46:15.430Z,75.76
2023-01-17T08:48:41.956Z,75.18
2023-01-17T08:51:08.991Z,75.56
2023-01-17T08:53:35.591Z,75.71
2023-01-17T08:56:04.072Z,75.75
2023-01-17T08:58:31.629Z,75.77
2023-01-17T09:01:06.225Z,75.47
2023-01-17T09:03:34.220Z,74.98
2023-01-17T09:06:02.092Z,74.42
2023-01-17T09:08:28.610Z,74.59
2023-01-17T09:10:55.112Z,75.38
2023-01-17T09:13:22.757Z,74.88
2023-01-17T09:15:49.456Z,74.87
2023-01-17T09:18:16.031Z,74.33
2023-01-17T09:20:42.525Z,74.71
2023-01-17T09:23:09.138Z,74.73
2023-01-17T09:25:35.804Z,74.89
2023-01-17T09:28:02.332Z,75.04
2023-01-17T09:30:28.877Z,75.18
2023-01-17T09:32:55.496Z,75.71
2023-01-17T09:35:22.181Z,75.40
2023-01-17T09:37:50.604Z,76.09
2023-01-17T09:40:24.942Z,75.54
2023-01-17T09:42:55.493Z,75.71
2023-01-17T09:45:22.074Z,76.06
2023-01-17T09:47:53.220Z,75.67
2023-01-17T09:50:38.061Z,76.16
2023-01-17T09:53:14.960Z,76.14
2023-01-17T09:55:58.408Z,75.77
2023-01-17T09:58:50.740Z,75.60
2023-01-17T10:01:47.859Z,76.06
2023-01-17T10:04:58.731Z,75.70
2023-01-17T10:07:31.037Z,75.66
2023-01-17T10:09:57.532Z,76.17
2023-01-17T10:12:37.069Z,75.76
2023-01-17T10:15:12.116Z,76.45
2023-01-17T10:17:54.049Z,76.19
2023-01-17T10:20:54.214Z,76.01
2023-01-17T10:23:58.196Z,76.24
2023-01-17T10:26:25.949Z,75.85
2023-01-17T10:29:00.411Z,75.35
2023-01-17T10:31:31.077Z,76.22
2023-01-17T10:34:11.164Z,75.73
2023-01-17T10:36:45.452Z,75.44
2023-01-17T10:39:24.031Z,75.12
2023-01-17T10:42:13.424Z,75.82
2023-01-17T10:44:48.323Z,75.39
2023-01-17T10:47:20.397Z,75.72
2023-01-17T10:49:51.993Z,75.92
2023-01-17T10:52:43.423Z,75.72
2023-01-17T10:55:12.819Z,75.83
2023-01-17T10:57:42.731Z,75.12
2023-01-17T11:00:40.173Z,74.92
2023-01-17T11:03:09.298Z,74.57
2023-01-17T11:05:36.000Z,74.70
2023-01-17T11:08:04.480Z,74.20
2023-01-17T11:10:54.249Z,74.88
2023-01-17T11:13:28.499Z,74.74
2023-01-17T11:15:59.327Z,74.73
2023-01-17T11:18:30.012Z,74.56
2023-01-17T11:21:17.703Z,74.54
2023-01-17T11:23:47.224Z,74.28
2023-01-17T11:26:29.849Z,75.04
2023-01-17T11:29:15.357Z,74.59
2023-01-17T11:31:41.954Z,74.73
2023-01-17T11:34:17.447Z,74.91
2023-01-17T11:36:44.711Z,74.51
2023-01-17T11:39:17.491Z,74.63
2023-01-17T11:41:46.136Z,74.50
2023-01-17T11:44:32.237Z,74.53
2023-01-17T11:47:14.829Z,74.57
2023-01-17T11:49:44.186Z,74.14
2023-01-17T11:52:24.458Z,74.26
2023-01-17T11:54:53.546Z,74.28
2023-01-17T11:57:29.858Z,74.34
2023-01-17T12:00:38.335Z,74.46
2023-01-17T12:03:07.989Z,74.49
2023-01-17T12:05:48.220Z,74.61
2023-01-17T12:08:26.845Z,74.41
2023-01-17T12:11:22.737Z,74.91
2023-01-17T12:14:05.853Z,74.89
2023-01-17T12:16:52.098Z,73.92
2023-01-17T12:19:43.665Z,74.18
2023-01-17T12:22:28.733Z,73.92
2023-01-17T12:25:21.629Z,73.97
2023-01-17T12:28:11.346Z,74.54
2023-01-17T12:30:43.872Z,74.40
2023-01-17T12:33:45.811Z,75.05
2023-01-17T12:36:36.732Z,75.14
2023-01-17T12:39:07.974Z,74.78
2023-01-17T12:41:43.038Z,74.94
2023-01-17T12:44:13.807Z,75.14
2023-01-17T12:46:49.488Z,75.27
2023-01-17T12:49:47.094Z,75.64
2023-01-17T12:52:33.217Z,75.54
2023-01-17T12:55:07.539Z,75.60
2023-01-17T12:57:41.101Z,75.28
2023-01-17T13:00:31.786Z,75.06
2023-01-17T13:03:27.572Z,75.41
2023-01-17T13:05:57.527Z,75.26
2023-01-17T13:08:39.077Z,75.40
2023-01-17T13:11:20.589Z,75.51
2023-01-17T13:13:50.774Z,74.79
2023-01-17T13:16:32.646Z,75.47
2023-01-17T13:19:07.565Z,75.79
2023-01-17T13:21:35.489Z,75.76
2023-01-17T13:24:22.559Z,75.67
2023-01-17T13:27:27.784Z,75.33
2023-01-17T13:30:03.645Z,75.53
2023-01-17T13:32:56.744Z,75.88
2023-01-17T13:35:36.026Z,75.57
2023-01-17T13:38:27.363Z,75.48
2023-01-17T13:41:09.846Z,74.93
2023-01-17T13:44:06.317Z,75.48
2023-01-17T13:46:53.964Z,76.02
2023-01-17T13:49:34.308Z,75.79
2023-01-17T13:52:12.338Z,75.81
2023-01-17T13:54:46.555Z,75.85
2023-01-17T13:57:27.334Z,75.87
2023-01-17T13:59:57.705Z,76.22
2023-01-17T14:02:33.326Z,76.30
2023-01-17T14:05:23.001Z,76.00
2023-01-17T14:07:57.546Z,76.33
2023-01-17T14:10:46.990Z,76.37
2023-01-17T14:13:36.395Z,76.59
2023-01-17T14:16:23.016Z,76.76
2023-01-17T14:18:50.139Z,76.77
2023-01-17T14:21:25.420Z,76.84
2023-01-17T14:24:05.970Z,76.94
2023-01-17T14:27:14.548Z,77.30
2023-01-17T14:29:54.123Z,76.99
2023-01-17T14:32:23.459Z,77.26
2023-01-17T14:34:52.336Z,77.73
2023-01-17T14:37:33.481Z,77.70
2023-01-17T14:40:01.012Z,77.77
2023-01-17T14:42:30.552Z,77.96
2023-01-17T14:45:03.231Z,78.40
2023-01-17T14:47:33.930Z,78.18
2023-01-17T14:50:20.131Z,78.39
2023-01-17T14:52:46.793Z,78.53
2023-01-17T14:55:19.453Z,78.54
2023-01-17T14:57:56.842Z,78.69
2023-01-17T15:00:29.421Z,78.62
2023-01-17T15:02:58.155Z,78.77
2023-01-17T15:05:27.500Z,78.55
2023-01-17T15:07:56.667Z,78.86
2023-01-17T15:10:29.916Z,78.84
2023-01-17T15:12:58.990Z,79.09
2023-01-17T15:15:39.982Z,79.26
2023-01-17T15:18:25.037Z,79.30
2023-01-17T15:20:57.684Z,79.54
2023-01-17T15:23:30.569Z,79.68
2023-01-17T15:25:58.339Z,79.90
2023-01-17T15:28:25.232Z,79.97
2023-01-17T15:31:09.377Z,79.73
2023-01-17T15:33:39.131Z,79.91
2023-01-17T15:36:09.394Z,79.91
2023-01-17T15:38:39.640Z,80.05
2023-01-17T15:41:13.674Z,80.19
2023-01-17T15:43:41.885Z,80.26
2023-01-17T15:46:21.480Z,80.39
2023-01-17T15:48:48.189Z,80.53
2023-01-17T15:51:30.920Z,80.54
2023-01-17T15:53:57.708Z,80.81
2023-01-17T15:56:33.765Z,80.62
2023-01-17T15:59:20.810Z,81.11
2023-01-17T16:01:55.723Z,81.04
2023-01-17T16:04:33.697Z,81.02
2023-01-17T16:07:21.253Z,81.53
2023-01-17T16:09:48.959Z,81.20
2023-01-17T16:12:15.571Z,81.35
2023-01-17T16:15:02.539Z,81.39
2023-01-17T16:17:30.531Z,81.62
2023-01-17T16:19:57.383Z,81.46
2023-01-17T16:22:23.992Z,81.71
2023-01-17T16:24:50.818Z,81.51
2023-01-17T16:27:17.550Z,81.59
2023-01-17T16:29:44.874Z,81.95
2023-01-17T16:32:11.519Z,81.49
2023-01-17T16:34:38.062Z,81.63
2023-01-17T16:37:04.564Z,81.71
2023-01-17T16:39:31.277Z,81.69
2023-01-17T16:42:02.136Z,81.54
2023-01-17T16:44:31.719Z,81.47
2023-01-17T16:47:02.072Z,81.26
2023-01-17T16:49:32.624Z,80.98
2023-01-17T16:51:59.736Z,81.18
2023-01-17T16:54:26.889Z,80.85
2023-01-17T16:56:53.889Z,80.68
2023-01-17T16:59:20.577Z,80.74
2023-01-17T17:01:49.335Z,80.66
2023-01-17T17:04:16.378Z,80.74
2023-01-17T17:06:42.998Z,80.52
2023-01-17T17:09:09.525Z,80.19
2023-01-17T17:11:36.022Z,80.28
2023-01-17T17:14:03.112Z,79.58
2023-01-17T17:16:30.386Z,79.57
2023-01-17T17:19:02.944Z,79.52
2023-01-17T17:21:30.715Z,79.65
2023-01-17T17:24:00.030Z,79.65
2023-01-17T17:26:31.053Z,79.62
2023-01-17T17:28:58.298Z,79.35
2023-01-17T17:31:24.977Z,79.28
2023-01-17T17:33:51.722Z,79.33
2023-01-17T17:36:18.393Z,79.76
2023-01-17T17:38:51.224Z,79.55
2023-01-17T17:41:20.264Z,79.82
2023-01-17T17:43:47.014Z,79.65
2023-01-17T17:46:14.211Z,79.58
2023-01-17T17:48:40.839Z,79.85
2023-01-17T17:51:07.414Z,79.95
2023-01-17T17:53:34.313Z,80.13
2023-01-17T17:56:05.439Z,80.12
2023-01-17T17:58:33.655Z,80.15
2023-01-17T18:01:05.010Z,80.59
2023-01-17T18:03:32.118Z,80.54
2023-01-17T18:06:10.005Z,80.81
2023-01-17T18:08:37.449Z,81.04
2023-01-17T18:11:08.251Z,80.98
2023-01-17T18:13:34.720Z,81.02
2023-01-17T18:16:10.834Z,81.35
2023-01-17T18:18:39.724Z,81.35
2023-01-17T18:21:06.389Z,81.48
2023-01-17T18:23:32.984Z,81.53
2023-01-17T18:25:59.490Z,81.37
2023-01-17T18:28:27.341Z,81.57
2023-01-17T18:30:53.909Z,81.55
2023-01-17T18:33:20.517Z,81.69
2023-01-17T18:35:54.470Z,81.62
2023-01-17T18:38:20.982Z,81.58
2023-01-17T18:40:47.928Z,81.52
2023-01-17T18:43:14.575Z,81.58
2023-01-17T18:45:41.047Z,81.54
2023-01-17T18:48:07.738Z,81.93
2023-01-17T18:50:34.209Z,82.15
2023-01-17T18:53:00.700Z,82.51
2023-01-17T18:55:27.406Z,82.33
2023-01-17T18:57:54.140Z,82.59
2023-01-17T19:00:21.421Z,83.08
2023-01-17T19:02:48.952Z,83.27
2023-01-17T19:05:17.965Z,83.10
2023-01-17T19:07:44.521Z,83.64
2023-01-17T19:10:11.176Z,83.82
2023-01-17T19:12:37.758Z,84.43
2023-01-17T19:15:04.598Z,84.71
2023-01-17T19:17:31.277Z,84.53
2023-01-17T19:19:57.808Z,84.97
2023-01-17T19:22:24.299Z,85.14
2023-01-17T19:24:53.310Z,85.08
2023-01-17T19:27:24.002Z,85.34
2023-01-17T19:29:50.649Z,84.79
2023-01-17T19:32:18.652Z,85.20
2023-01-17T19:34:45.229Z,85.11
2023-01-17T19:37:11.831Z,85.00
2023-01-17T19:39:38.521Z,85.08
2023-01-17T19:42:12.870Z,85.48
2023-01-17T19:44:39.393Z,85.53
2023-01-17T19:47:05.927Z,85.28
2023-01-17T19:49:33.970Z,85.02
2023-01-17T19:52:00.437Z,85.13
2023-01-17T19:54:26.958Z,84.69
2023-01-17T19:56:53.512Z,84.62
2023-01-17T19:59:20.246Z,84.46
2023-01-17T20:01:46.865Z,84.35
2023-01-17T20:04:13.503Z,84.33
2023-01-17T20:06:40.245Z,84.59
2023-01-17T20:09:06.853Z,84.17
2023-01-17T20:11:33.578Z,84.24
2023-01-17T20:14:00.555Z,83.97
2023-01-17T20:16:30.405Z,83.69
2023-01-17T20:18:58.652Z,83.32
2023-01-17T20:21:27.536Z,83.74
2023-01-17T20:23:57.959Z,83.65
2023-01-17T20:26:31.291Z,83.41
2023-01-17T20:28:57.869Z,83.36
2023-01-17T20:31:25.515Z,83.36
2023-01-17T20:33:56.329Z,83.11
2023-01-17T20:36:25.574Z,83.35
2023-01-17T20:38:54.471Z,83.46
2023-01-17T20:41:28.976Z,83.36
2023-01-17T20:43:58.107Z,83.31
2023-01-17T20:46:31.601Z,83.30
2023-01-17T20:48:58.401Z,83.36
2023-01-17T20:51:26.476Z,83.33
2023-01-17T20:53:57.751Z,83.12
2023-01-17T20:56:25.743Z,83.22
2023-01-17T20:58:54.019Z,83.29
2023-01-17T21:01:21.824Z,83.11
2023-01-17T21:03:53.964Z,83.19
2023-01-17T21:06:24.849Z,83.51
2023-01-17T21:08:53.395Z,83.13
2023-01-17T21:11:22.500Z,83.41
2023-01-17T21:13:49.935Z,83.59
2023-01-17T21:16:17.913Z,83.58
2023-01-17T21:18:49.167Z,83.63
2023-01-17T21:21:18.931Z,83.46
2023-01-17T21:23:45.959Z,83.59
2023-01-17T21:26:14.894Z,83.62
2023-01-17T21:28:43.474Z,83.75
2023-01-17T21:31:20.504Z,83.63
2023-01-17T21:33:47.584Z,83.27
2023-01-17T21:36:14.914Z,83.40
2023-01-17T21:38:41.545Z,83.67
2023-01-17T21:41:08.293Z,83.85
2023-01-17T21:43:35.355Z,84.10
2023-01-17T21:46:04.733Z,84.03
2023-01-17T21:48:31.962Z,83.91
2023-01-17T21:51:04.251Z,83.99
2023-01-17T21:53:33.166Z,84.24
2023-01-17T21:56:19.641Z,83.60
2023-01-17T21:58:49.338Z,84.25
2023-01-17T22:01:18.175Z,84.90
2023-01-17T22:03:49.276Z,85.23
2023-01-17T22:06:16.358Z,85.56
2023-01-17T22:08:43.347Z,86.44
2023-01-17T22:11:12.191Z,86.54
2023-01-17T22:13:40.328Z,86.28
2023-01-17T22:16:10.440Z,86.55
2023-01-17T22:18:39.287Z,86.50
2023-01-17T22:21:22.031Z,85.99
2023-01-17T22:23:53.984Z,85.77
2023-01-17T22:26:23.248Z,86.25
2023-01-17T22:28:49.852Z,85.72
2023-01-17T22:31:19.125Z,86.09
2023-01-17T22:33:47.356Z,86.17
2023-01-17T22:36:15.179Z,86.49
2023-01-17T22:38:44.752Z,86.15
2023-01-17T22:41:17.263Z,85.77
2023-01-17T22:43:47.050Z,86.60
2023-01-17T22:46:19.101Z,85.61
2023-01-17T22:48:46.291Z,85.79
2023-01-17T22:51:15.388Z,85.29
2023-01-17T22:53:44.252Z,85.95
2023-01-17T22:56:16.112Z,86.74
2023-01-17T22:58:45.054Z,86.65
2023-01-17T23:01:19.054Z,86.70
2023-01-17T23:03:47.369Z,86.64
2023-01-17T23:06:38.339Z,87.18
2023-01-17T23:09:13.397Z,87.25
2023-01-17T23:11:43.307Z,87.19
2023-01-17T23:14:14.480Z,87.30
2023-01-17T23:17:03.246Z,85.57
2023-01-17T23:19:33.639Z,86.63
2023-01-17T23:22:16.573Z,85.77
2023-01-17T23:24:44.344Z,87.26
2023-01-17T23:27:30.939Z,87.43
2023-01-17T23:29:58.049Z,87.39
2023-01-17T23:32:25.475Z,87.74
2023-01-17T23:34:52.083Z,87.87
2023-01-17T23:37:18.607Z,88.34
2023-01-17T23:39:45.151Z,88.63
2023-01-17T23:42:30.219Z,88.69
2023-01-17T23:44:56.751Z,89.15
2023-01-17T23:47:23.252Z,89.46
2023-01-17T23:49:49.823Z,88.83
2023-01-17T23:52:16.384Z,89.32
2023-01-17T23:54:42.949Z,89.56
2023-01-17T23:57:09.471Z,89.13
2023-01-17T23:59:36.057Z,89.63
